sensor_id;sensor_type;location;lat;lon;timestamp;P1;durP1;ratioP1;P2;durP2;ratioP2
69323;SDS011;56470;47.350;8.718;2023-09-30T00:00:53;19.73;;;7.03;;
69323;SDS011;56470;47.350;8.718;2023-09-30T00:03:18;25.47;;;7.73;;
69323;SDS011;56470;47.350;8.718;2023-09-30T00:05:43;24.10;;;7.47;;
69323;SDS011;56470;47.350;8.718;2023-09-30T00:08:09;19.70;;;7.10;;
69323;SDS011;56470;47.350;8.718;2023-09-30T00:10:34;22.57;;;6.67;;
69323;SDS011;56470;47.350;8.718;2023-09-30T00:12:59;19.60;;;6.43;;
69323;SDS011;56470;47.350;8.718;2023-09-30T00:15:25;23.50;;;7.37;;
69323;SDS011;56470;47.350;8.718;2023-09-30T00:17:50;21.83;;;7.13;;
69323;SDS011;56470;47.350;8.718;2023-09-30T00:20:15;22.17;;;7.30;;
69323;SDS011;56470;47.350;8.718;2023-09-30T00:22:42;21.77;;;7.68;;
69323;SDS011;56470;47.350;8.718;2023-09-30T00:25:07;19.43;;;6.90;;
69323;SDS011;56470;47.350;8.718;2023-09-30T00:27:33;21.73;;;6.07;;
69323;SDS011;56470;47.350;8.718;2023-09-30T00:29:58;20.50;;;6.43;;
69323;SDS011;56470;47.350;8.718;2023-09-30T00:32:24;19.43;;;6.97;;
69323;SDS011;56470;47.350;8.718;2023-09-30T00:34:49;18.20;;;6.27;;
69323;SDS011;56470;47.350;8.718;2023-09-30T00:37:16;20.58;;;7.03;;
69323;SDS011;56470;47.350;8.718;2023-09-30T00:39:42;21.47;;;6.57;;
69323;SDS011;56470;47.350;8.718;2023-09-30T00:42:09;22.13;;;6.53;;
69323;SDS011;56470;47.350;8.718;2023-09-30T00:44:34;23.37;;;7.37;;
69323;SDS011;56470;47.350;8.718;2023-09-30T00:46:59;17.00;;;5.60;;
69323;SDS011;56470;47.350;8.718;2023-09-30T00:49:25;18.25;;;5.40;;
69323;SDS011;56470;47.350;8.718;2023-09-30T00:51:51;16.63;;;5.03;;
69323;SDS011;56470;47.350;8.718;2023-09-30T00:54:17;16.60;;;5.28;;
69323;SDS011;56470;47.350;8.718;2023-09-30T00:56:44;16.33;;;4.68;;
69323;SDS011;56470;47.350;8.718;2023-09-30T00:59:11;14.30;;;5.30;;
69323;SDS011;56470;47.350;8.718;2023-09-30T01:01:38;17.08;;;5.85;;
69323;SDS011;56470;47.350;8.718;2023-09-30T01:04:04;18.52;;;5.45;;
69323;SDS011;56470;47.350;8.718;2023-09-30T01:06:30;17.40;;;4.90;;
69323;SDS011;56470;47.350;8.718;2023-09-30T01:08:55;17.05;;;4.90;;
69323;SDS011;56470;47.350;8.718;2023-09-30T01:11:21;16.57;;;4.60;;
69323;SDS011;56470;47.350;8.718;2023-09-30T01:13:46;14.73;;;5.03;;
69323;SDS011;56470;47.350;8.718;2023-09-30T01:16:12;17.27;;;5.22;;
69323;SDS011;56470;47.350;8.718;2023-09-30T01:18:41;17.70;;;5.73;;
69323;SDS011;56470;47.350;8.718;2023-09-30T01:21:08;17.02;;;5.22;;
69323;SDS011;56470;47.350;8.718;2023-09-30T01:23:34;19.98;;;6.80;;
69323;SDS011;56470;47.350;8.718;2023-09-30T01:26:03;17.73;;;6.07;;
69323;SDS011;56470;47.350;8.718;2023-09-30T01:28:33;18.60;;;6.65;;
69323;SDS011;56470;47.350;8.718;2023-09-30T01:30:59;19.47;;;6.00;;
69323;SDS011;56470;47.350;8.718;2023-09-30T01:33:24;18.07;;;6.20;;
69323;SDS011;56470;47.350;8.718;2023-09-30T01:35:50;19.60;;;6.30;;
69323;SDS011;56470;47.350;8.718;2023-09-30T01:38:15;18.08;;;5.82;;
69323;SDS011;56470;47.350;8.718;2023-09-30T01:40:41;18.27;;;5.47;;
69323;SDS011;56470;47.350;8.718;2023-09-30T01:43:07;16.27;;;5.45;;
69323;SDS011;56470;47.350;8.718;2023-09-30T01:45:32;14.20;;;4.70;;
69323;SDS011;56470;47.350;8.718;2023-09-30T01:47:58;16.37;;;5.23;;
69323;SDS011;56470;47.350;8.718;2023-09-30T01:50:23;17.67;;;5.30;;
69323;SDS011;56470;47.350;8.718;2023-09-30T01:52:48;16.27;;;5.47;;
69323;SDS011;56470;47.350;8.718;2023-09-30T01:55:14;15.77;;;4.60;;
69323;SDS011;56470;47.350;8.718;2023-09-30T01:57:39;13.77;;;4.83;;
69323;SDS011;56470;47.350;8.718;2023-09-30T02:00:04;14.23;;;5.07;;
69323;SDS011;56470;47.350;8.718;2023-09-30T02:02:33;18.13;;;4.65;;
69323;SDS011;56470;47.350;8.718;2023-09-30T02:04:59;14.03;;;4.53;;
69323;SDS011;56470;47.350;8.718;2023-09-30T02:07:24;16.10;;;5.60;;
69323;SDS011;56470;47.350;8.718;2023-09-30T02:09:50;14.00;;;4.87;;
69323;SDS011;56470;47.350;8.718;2023-09-30T02:12:15;14.53;;;5.70;;
69323;SDS011;56470;47.350;8.718;2023-09-30T02:14:40;13.67;;;5.00;;
69323;SDS011;56470;47.350;8.718;2023-09-30T02:17:05;15.83;;;4.73;;
69323;SDS011;56470;47.350;8.718;2023-09-30T02:19:31;14.50;;;4.60;;
69323;SDS011;56470;47.350;8.718;2023-09-30T02:21:58;16.23;;;4.65;;
69323;SDS011;56470;47.350;8.718;2023-09-30T02:24:24;17.70;;;5.10;;
69323;SDS011;56470;47.350;8.718;2023-09-30T02:26:49;17.70;;;5.63;;
69323;SDS011;56470;47.350;8.718;2023-09-30T02:29:15;12.93;;;4.87;;
69323;SDS011;56470;47.350;8.718;2023-09-30T02:31:40;14.53;;;4.43;;
69323;SDS011;56470;47.350;8.718;2023-09-30T02:34:06;16.35;;;5.50;;
69323;SDS011;56470;47.350;8.718;2023-09-30T02:36:31;15.40;;;5.13;;
69323;SDS011;56470;47.350;8.718;2023-09-30T02:38:57;15.57;;;5.40;;
69323;SDS011;56470;47.350;8.718;2023-09-30T02:41:23;16.93;;;5.13;;
69323;SDS011;56470;47.350;8.718;2023-09-30T02:43:48;13.93;;;5.32;;
69323;SDS011;56470;47.350;8.718;2023-09-30T02:46:14;14.40;;;5.10;;
69323;SDS011;56470;47.350;8.718;2023-09-30T02:48:40;16.00;;;5.50;;
69323;SDS011;56470;47.350;8.718;2023-09-30T02:51:09;14.67;;;5.30;;
69323;SDS011;56470;47.350;8.718;2023-09-30T02:53:34;15.98;;;4.85;;
69323;SDS011;56470;47.350;8.718;2023-09-30T02:56:00;20.13;;;5.77;;
69323;SDS011;56470;47.350;8.718;2023-09-30T02:58:25;14.90;;;5.03;;
69323;SDS011;56470;47.350;8.718;2023-09-30T03:00:50;18.07;;;5.40;;
69323;SDS011;56470;47.350;8.718;2023-09-30T03:03:16;18.25;;;5.28;;
69323;SDS011;56470;47.350;8.718;2023-09-30T03:05:41;16.00;;;4.83;;
69323;SDS011;56470;47.350;8.718;2023-09-30T03:08:06;16.53;;;4.53;;
69323;SDS011;56470;47.350;8.718;2023-09-30T03:10:32;16.70;;;5.73;;
69323;SDS011;56470;47.350;8.718;2023-09-30T03:12:57;17.40;;;5.37;;
69323;SDS011;56470;47.350;8.718;2023-09-30T03:15:26;17.80;;;5.90;;
69323;SDS011;56470;47.350;8.718;2023-09-30T03:17:53;14.02;;;4.60;;
69323;SDS011;56470;47.350;8.718;2023-09-30T03:20:20;18.15;;;5.53;;
69323;SDS011;56470;47.350;8.718;2023-09-30T03:22:46;15.23;;;5.60;;
69323;SDS011;56470;47.350;8.718;2023-09-30T03:25:12;15.80;;;5.72;;
69323;SDS011;56470;47.350;8.718;2023-09-30T03:27:40;14.83;;;5.03;;
69323;SDS011;56470;47.350;8.718;2023-09-30T03:30:06;17.38;;;5.20;;
69323;SDS011;56470;47.350;8.718;2023-09-30T03:32:33;14.50;;;4.97;;
69323;SDS011;56470;47.350;8.718;2023-09-30T03:34:59;14.73;;;5.50;;
69323;SDS011;56470;47.350;8.718;2023-09-30T03:37:31;18.00;;;5.38;;
69323;SDS011;56470;47.350;8.718;2023-09-30T03:39:57;18.02;;;5.80;;
69323;SDS011;56470;47.350;8.718;2023-09-30T03:42:22;18.37;;;4.97;;
69323;SDS011;56470;47.350;8.718;2023-09-30T03:44:47;16.67;;;6.07;;
69323;SDS011;56470;47.350;8.718;2023-09-30T03:47:16;15.98;;;5.13;;
69323;SDS011;56470;47.350;8.718;2023-09-30T03:49:42;15.23;;;5.80;;
69323;SDS011;56470;47.350;8.718;2023-09-30T03:52:08;17.67;;;5.83;;
69323;SDS011;56470;47.350;8.718;2023-09-30T03:54:36;16.13;;;4.82;;
69323;SDS011;56470;47.350;8.718;2023-09-30T03:57:02;16.13;;;5.27;;
69323;SDS011;56470;47.350;8.718;2023-09-30T03:59:28;17.23;;;5.73;;
69323;SDS011;56470;47.350;8.718;2023-09-30T04:01:55;16.63;;;4.88;;
69323;SDS011;56470;47.350;8.718;2023-09-30T04:04:23;18.17;;;4.50;;
69323;SDS011;56470;47.350;8.718;2023-09-30T04:06:50;17.27;;;5.72;;
69323;SDS011;56470;47.350;8.718;2023-09-30T04:09:16;13.80;;;4.97;;
69323;SDS011;56470;47.350;8.718;2023-09-30T04:11:42;16.67;;;5.63;;
69323;SDS011;56470;47.350;8.718;2023-09-30T04:14:08;15.80;;;5.20;;
69323;SDS011;56470;47.350;8.718;2023-09-30T04:16:34;13.23;;;4.50;;
69323;SDS011;56470;47.350;8.718;2023-09-30T04:19:00;13.75;;;4.47;;
69323;SDS011;56470;47.350;8.718;2023-09-30T04:21:26;15.32;;;5.20;;
69323;SDS011;56470;47.350;8.718;2023-09-30T04:23:53;15.32;;;5.53;;
69323;SDS011;56470;47.350;8.718;2023-09-30T04:26:19;16.57;;;4.57;;
69323;SDS011;56470;47.350;8.718;2023-09-30T04:28:44;15.88;;;5.25;;
69323;SDS011;56470;47.350;8.718;2023-09-30T04:31:10;18.13;;;5.27;;
69323;SDS011;56470;47.350;8.718;2023-09-30T04:33:37;15.90;;;5.25;;
69323;SDS011;56470;47.350;8.718;2023-09-30T04:36:02;15.80;;;4.90;;
69323;SDS011;56470;47.350;8.718;2023-09-30T04:38:28;14.27;;;4.90;;
69323;SDS011;56470;47.350;8.718;2023-09-30T04:40:53;16.70;;;5.50;;
69323;SDS011;56470;47.350;8.718;2023-09-30T04:43:19;15.27;;;5.05;;
69323;SDS011;56470;47.350;8.718;2023-09-30T04:45:46;16.63;;;4.85;;
69323;SDS011;56470;47.350;8.718;2023-09-30T04:48:11;13.65;;;4.63;;
69323;SDS011;56470;47.350;8.718;2023-09-30T04:50:38;16.80;;;5.93;;
69323;SDS011;56470;47.350;8.718;2023-09-30T04:53:06;17.42;;;5.47;;
69323;SDS011;56470;47.350;8.718;2023-09-30T04:55:32;12.98;;;4.75;;
69323;SDS011;56470;47.350;8.718;2023-09-30T04:57:58;16.93;;;5.47;;
69323;SDS011;56470;47.350;8.718;2023-09-30T05:00:23;15.27;;;5.07;;
69323;SDS011;56470;47.350;8.718;2023-09-30T05:02:54;15.50;;;4.53;;
69323;SDS011;56470;47.350;8.718;2023-09-30T05:05:20;13.20;;;5.27;;
69323;SDS011;56470;47.350;8.718;2023-09-30T05:07:46;14.20;;;4.53;;
69323;SDS011;56470;47.350;8.718;2023-09-30T05:10:14;15.73;;;5.40;;
69323;SDS011;56470;47.350;8.718;2023-09-30T05:12:42;13.90;;;4.77;;
69323;SDS011;56470;47.350;8.718;2023-09-30T05:15:10;15.00;;;5.03;;
69323;SDS011;56470;47.350;8.718;2023-09-30T05:17:36;15.32;;;5.00;;
69323;SDS011;56470;47.350;8.718;2023-09-30T05:20:02;16.93;;;5.40;;
69323;SDS011;56470;47.350;8.718;2023-09-30T05:22:32;16.63;;;4.60;;
69323;SDS011;56470;47.350;8.718;2023-09-30T05:24:58;16.00;;;5.47;;
69323;SDS011;56470;47.350;8.718;2023-09-30T05:27:24;12.80;;;4.77;;
69323;SDS011;56470;47.350;8.718;2023-09-30T05:29:49;17.20;;;4.93;;
69323;SDS011;56470;47.350;8.718;2023-09-30T05:32:15;14.73;;;5.40;;
69323;SDS011;56470;47.350;8.718;2023-09-30T05:34:40;15.53;;;5.10;;
69323;SDS011;56470;47.350;8.718;2023-09-30T05:37:06;15.33;;;5.13;;
69323;SDS011;56470;47.350;8.718;2023-09-30T05:39:31;14.93;;;5.47;;
69323;SDS011;56470;47.350;8.718;2023-09-30T05:41:57;16.60;;;4.97;;
69323;SDS011;56470;47.350;8.718;2023-09-30T05:44:22;15.73;;;5.00;;
69323;SDS011;56470;47.350;8.718;2023-09-30T05:46:48;16.23;;;5.13;;
69323;SDS011;56470;47.350;8.718;2023-09-30T05:49:13;18.17;;;5.73;;
69323;SDS011;56470;47.350;8.718;2023-09-30T05:51:39;17.10;;;5.93;;
69323;SDS011;56470;47.350;8.718;2023-09-30T05:54:06;17.15;;;5.60;;
69323;SDS011;56470;47.350;8.718;2023-09-30T05:56:32;18.60;;;5.88;;
69323;SDS011;56470;47.350;8.718;2023-09-30T05:58:58;17.57;;;5.50;;
69323;SDS011;56470;47.350;8.718;2023-09-30T06:01:23;19.17;;;7.37;;
69323;SDS011;56470;47.350;8.718;2023-09-30T06:03:48;14.60;;;6.30;;
69323;SDS011;56470;47.350;8.718;2023-09-30T06:06:14;17.65;;;5.75;;
69323;SDS011;56470;47.350;8.718;2023-09-30T06:08:41;17.43;;;5.67;;
69323;SDS011;56470;47.350;8.718;2023-09-30T06:11:15;18.17;;;5.60;;
69323;SDS011;56470;47.350;8.718;2023-09-30T06:13:42;17.83;;;6.50;;
69323;SDS011;56470;47.350;8.718;2023-09-30T06:16:07;15.97;;;5.23;;
69323;SDS011;56470;47.350;8.718;2023-09-30T06:18:32;17.33;;;5.70;;
69323;SDS011;56470;47.350;8.718;2023-09-30T06:20:58;18.90;;;5.80;;
69323;SDS011;56470;47.350;8.718;2023-09-30T06:23:23;16.73;;;5.32;;
69323;SDS011;56470;47.350;8.718;2023-09-30T06:25:48;19.23;;;5.47;;
69323;SDS011;56470;47.350;8.718;2023-09-30T06:28:13;16.33;;;6.03;;
69323;SDS011;56470;47.350;8.718;2023-09-30T06:30:39;18.27;;;5.90;;
69323;SDS011;56470;47.350;8.718;2023-09-30T06:33:06;14.65;;;5.32;;
69323;SDS011;56470;47.350;8.718;2023-09-30T06:35:32;18.73;;;6.33;;
69323;SDS011;56470;47.350;8.718;2023-09-30T06:38:03;17.97;;;5.90;;
69323;SDS011;56470;47.350;8.718;2023-09-30T06:40:31;18.33;;;6.25;;
69323;SDS011;56470;47.350;8.718;2023-09-30T06:42:56;18.33;;;6.77;;
69323;SDS011;56470;47.350;8.718;2023-09-30T06:45:22;21.52;;;6.88;;
69323;SDS011;56470;47.350;8.718;2023-09-30T06:47:48;19.10;;;6.77;;
69323;SDS011;56470;47.350;8.718;2023-09-30T06:50:14;16.38;;;5.68;;
69323;SDS011;56470;47.350;8.718;2023-09-30T06:52:42;15.40;;;6.28;;
69323;SDS011;56470;47.350;8.718;2023-09-30T06:55:10;17.67;;;6.18;;
69323;SDS011;56470;47.350;8.718;2023-09-30T06:57:39;16.70;;;5.37;;
69323;SDS011;56470;47.350;8.718;2023-09-30T07:00:09;13.45;;;4.72;;
69323;SDS011;56470;47.350;8.718;2023-09-30T07:02:36;15.73;;;5.63;;
69323;SDS011;56470;47.350;8.718;2023-09-30T07:05:08;15.38;;;5.18;;
69323;SDS011;56470;47.350;8.718;2023-09-30T07:07:34;16.02;;;5.82;;
69323;SDS011;56470;47.350;8.718;2023-09-30T07:09:59;15.60;;;5.30;;
69323;SDS011;56470;47.350;8.718;2023-09-30T07:12:24;19.07;;;5.67;;
69323;SDS011;56470;47.350;8.718;2023-09-30T07:14:49;17.17;;;6.53;;
69323;SDS011;56470;47.350;8.718;2023-09-30T07:17:15;17.90;;;5.50;;
69323;SDS011;56470;47.350;8.718;2023-09-30T07:19:40;17.33;;;5.20;;
69323;SDS011;56470;47.350;8.718;2023-09-30T07:22:05;14.00;;;5.77;;
69323;SDS011;56470;47.350;8.718;2023-09-30T07:24:31;17.30;;;5.32;;
69323;SDS011;56470;47.350;8.718;2023-09-30T07:26:56;16.50;;;5.23;;
69323;SDS011;56470;47.350;8.718;2023-09-30T07:29:21;14.20;;;5.23;;
69323;SDS011;56470;47.350;8.718;2023-09-30T07:31:48;14.02;;;5.03;;
69323;SDS011;56470;47.350;8.718;2023-09-30T07:34:13;15.53;;;5.33;;
69323;SDS011;56470;47.350;8.718;2023-09-30T07:36:38;14.53;;;5.57;;
69323;SDS011;56470;47.350;8.718;2023-09-30T07:39:04;18.07;;;6.27;;
69323;SDS011;56470;47.350;8.718;2023-09-30T07:41:34;18.45;;;5.80;;
69323;SDS011;56470;47.350;8.718;2023-09-30T07:44:01;17.95;;;5.85;;
69323;SDS011;56470;47.350;8.718;2023-09-30T07:46:28;15.63;;;5.38;;
69323;SDS011;56470;47.350;8.718;2023-09-30T07:48:53;13.47;;;4.83;;
69323;SDS011;56470;47.350;8.718;2023-09-30T07:51:20;19.85;;;6.22;;
69323;SDS011;56470;47.350;8.718;2023-09-30T07:53:45;17.80;;;5.33;;
69323;SDS011;56470;47.350;8.718;2023-09-30T07:56:10;16.05;;;5.78;;
69323;SDS011;56470;47.350;8.718;2023-09-30T07:58:36;18.50;;;5.83;;
69323;SDS011;56470;47.350;8.718;2023-09-30T08:01:01;16.67;;;5.53;;
69323;SDS011;56470;47.350;8.718;2023-09-30T08:03:26;16.73;;;5.17;;
69323;SDS011;56470;47.350;8.718;2023-09-30T08:05:52;18.73;;;6.10;;
69323;SDS011;56470;47.350;8.718;2023-09-30T08:08:17;19.50;;;6.07;;
69323;SDS011;56470;47.350;8.718;2023-09-30T08:10:42;18.23;;;6.37;;
69323;SDS011;56470;47.350;8.718;2023-09-30T08:13:08;15.82;;;5.57;;
69323;SDS011;56470;47.350;8.718;2023-09-30T08:15:34;15.90;;;5.47;;
69323;SDS011;56470;47.350;8.718;2023-09-30T08:18:00;17.10;;;6.20;;
69323;SDS011;56470;47.350;8.718;2023-09-30T08:20:27;14.73;;;5.15;;
69323;SDS011;56470;47.350;8.718;2023-09-30T08:22:52;14.50;;;5.97;;
69323;SDS011;56470;47.350;8.718;2023-09-30T08:25:18;19.83;;;5.73;;
69323;SDS011;56470;47.350;8.718;2023-09-30T08:27:43;19.27;;;6.00;;
69323;SDS011;56470;47.350;8.718;2023-09-30T08:30:10;15.43;;;5.40;;
69323;SDS011;56470;47.350;8.718;2023-09-30T08:32:36;16.87;;;5.90;;
69323;SDS011;56470;47.350;8.718;2023-09-30T08:35:04;17.50;;;5.77;;
69323;SDS011;56470;47.350;8.718;2023-09-30T08:37:30;16.05;;;5.53;;
69323;SDS011;56470;47.350;8.718;2023-09-30T08:39:56;13.43;;;5.50;;
69323;SDS011;56470;47.350;8.718;2023-09-30T08:42:21;17.60;;;5.37;;
69323;SDS011;56470;47.350;8.718;2023-09-30T08:44:47;17.02;;;5.55;;
69323;SDS011;56470;47.350;8.718;2023-09-30T08:47:13;16.20;;;6.53;;
69323;SDS011;56470;47.350;8.718;2023-09-30T08:49:40;14.65;;;5.53;;
69323;SDS011;56470;47.350;8.718;2023-09-30T08:52:09;21.42;;;6.10;;
69323;SDS011;56470;47.350;8.718;2023-09-30T08:54:35;15.07;;;5.70;;
69323;SDS011;56470;47.350;8.718;2023-09-30T08:57:01;17.93;;;6.37;;
69323;SDS011;56470;47.350;8.718;2023-09-30T08:59:29;21.20;;;5.68;;
69323;SDS011;56470;47.350;8.718;2023-09-30T09:01:56;18.23;;;6.28;;
69323;SDS011;56470;47.350;8.718;2023-09-30T09:04:22;18.38;;;6.25;;
69323;SDS011;56470;47.350;8.718;2023-09-30T09:06:48;20.03;;;5.83;;
69323;SDS011;56470;47.350;8.718;2023-09-30T09:09:17;18.50;;;6.20;;
69323;SDS011;56470;47.350;8.718;2023-09-30T09:11:43;18.42;;;6.32;;
69323;SDS011;56470;47.350;8.718;2023-09-30T09:14:09;19.27;;;5.20;;
69323;SDS011;56470;47.350;8.718;2023-09-30T09:16:34;19.53;;;6.70;;
69323;SDS011;56470;47.350;8.718;2023-09-30T09:19:12;19.83;;;6.38;;
69323;SDS011;56470;47.350;8.718;2023-09-30T09:21:39;16.83;;;6.28;;
69323;SDS011;56470;47.350;8.718;2023-09-30T09:24:30;17.10;;;5.83;;
69323;SDS011;56470;47.350;8.718;2023-09-30T09:27:05;17.52;;;6.05;;
69323;SDS011;56470;47.350;8.718;2023-09-30T09:29:31;16.63;;;6.00;;
69323;SDS011;56470;47.350;8.718;2023-09-30T09:32:07;16.25;;;4.75;;
69323;SDS011;56470;47.350;8.718;2023-09-30T09:34:34;17.33;;;6.65;;
69323;SDS011;56470;47.350;8.718;2023-09-30T09:36:59;19.07;;;5.80;;
69323;SDS011;56470;47.350;8.718;2023-09-30T09:39:30;16.30;;;6.13;;
69323;SDS011;56470;47.350;8.718;2023-09-30T09:41:56;16.13;;;5.65;;
69323;SDS011;56470;47.350;8.718;2023-09-30T09:44:23;21.02;;;6.55;;
69323;SDS011;56470;47.350;8.718;2023-09-30T09:46:52;19.70;;;6.47;;
69323;SDS011;56470;47.350;8.718;2023-09-30T09:49:18;17.50;;;6.37;;
69323;SDS011;56470;47.350;8.718;2023-09-30T09:51:47;18.77;;;6.57;;
69323;SDS011;56470;47.350;8.718;2023-09-30T09:54:14;16.00;;;5.72;;
69323;SDS011;56470;47.350;8.718;2023-09-30T09:56:41;15.75;;;5.80;;
69323;SDS011;56470;47.350;8.718;2023-09-30T09:59:09;18.02;;;6.35;;
69323;SDS011;56470;47.350;8.718;2023-09-30T10:01:36;18.95;;;6.43;;
69323;SDS011;56470;47.350;8.718;2023-09-30T10:04:04;18.60;;;6.07;;
69323;SDS011;56470;47.350;8.718;2023-09-30T10:06:30;19.02;;;6.72;;
69323;SDS011;56470;47.350;8.718;2023-09-30T10:08:55;19.00;;;6.40;;
69323;SDS011;56470;47.350;8.718;2023-09-30T10:11:22;18.92;;;6.72;;
69323;SDS011;56470;47.350;8.718;2023-09-30T10:13:51;15.93;;;6.03;;
69323;SDS011;56470;47.350;8.718;2023-09-30T10:19:16;17.90;;;6.73;;
69323;SDS011;56470;47.350;8.718;2023-09-30T10:24:44;19.08;;;6.75;;
69323;SDS011;56470;47.350;8.718;2023-09-30T10:29:47;20.63;;;7.13;;
69323;SDS011;56470;47.350;8.718;2023-09-30T10:32:13;17.33;;;6.38;;
69323;SDS011;56470;47.350;8.718;2023-09-30T10:34:39;18.98;;;6.47;;
69323;SDS011;56470;47.350;8.718;2023-09-30T10:37:19;18.33;;;5.78;;
69323;SDS011;56470;47.350;8.718;2023-09-30T10:40:00;18.67;;;6.45;;
69323;SDS011;56470;47.350;8.718;2023-09-30T10:42:43;16.43;;;5.80;;
69323;SDS011;56470;47.350;8.718;2023-09-30T10:50:50;17.40;;;5.68;;
69323;SDS011;56470;47.350;8.718;2023-09-30T10:53:23;17.20;;;5.82;;
69323;SDS011;56470;47.350;8.718;2023-09-30T10:55:54;16.40;;;5.40;;
69323;SDS011;56470;47.350;8.718;2023-09-30T10:58:21;16.75;;;5.63;;
69323;SDS011;56470;47.350;8.718;2023-09-30T11:00:53;22.20;;;6.10;;
69323;SDS011;56470;47.350;8.718;2023-09-30T11:03:19;17.33;;;5.83;;
69323;SDS011;56470;47.350;8.718;2023-09-30T11:05:48;16.45;;;5.25;;
69323;SDS011;56470;47.350;8.718;2023-09-30T11:08:16;16.23;;;5.50;;
69323;SDS011;56470;47.350;8.718;2023-09-30T11:10:50;14.55;;;6.00;;
69323;SDS011;56470;47.350;8.718;2023-09-30T11:13:20;15.40;;;6.28;;
69323;SDS011;56470;47.350;8.718;2023-09-30T11:15:45;14.87;;;5.40;;
69323;SDS011;56470;47.350;8.718;2023-09-30T11:20:41;13.57;;;5.47;;
69323;SDS011;56470;47.350;8.718;2023-09-30T11:23:07;14.23;;;5.90;;
69323;SDS011;56470;47.350;8.718;2023-09-30T11:25:36;15.27;;;5.78;;
69323;SDS011;56470;47.350;8.718;2023-09-30T11:28:15;15.87;;;5.30;;
69323;SDS011;56470;47.350;8.718;2023-09-30T11:31:01;16.83;;;5.68;;
69323;SDS011;56470;47.350;8.718;2023-09-30T11:33:32;15.98;;;5.75;;
69323;SDS011;56470;47.350;8.718;2023-09-30T11:36:02;18.38;;;6.45;;
69323;SDS011;56470;47.350;8.718;2023-09-30T11:38:28;15.60;;;5.47;;
69323;SDS011;56470;47.350;8.718;2023-09-30T11:41:01;15.27;;;5.73;;
69323;SDS011;56470;47.350;8.718;2023-09-30T11:43:29;14.70;;;5.32;;
69323;SDS011;56470;47.350;8.718;2023-09-30T11:46:05;13.93;;;5.72;;
69323;SDS011;56470;47.350;8.718;2023-09-30T11:48:30;15.77;;;5.53;;
69323;SDS011;56470;47.350;8.718;2023-09-30T11:50:56;15.32;;;5.53;;
69323;SDS011;56470;47.350;8.718;2023-09-30T11:53:26;24.42;;;9.20;;
69323;SDS011;56470;47.350;8.718;2023-09-30T11:55:51;14.60;;;4.80;;
69323;SDS011;56470;47.350;8.718;2023-09-30T11:58:20;15.98;;;5.60;;
69323;SDS011;56470;47.350;8.718;2023-09-30T12:00:48;15.57;;;5.47;;
69323;SDS011;56470;47.350;8.718;2023-09-30T12:03:15;12.00;;;4.43;;
69323;SDS011;56470;47.350;8.718;2023-09-30T12:05:41;12.98;;;5.05;;
69323;SDS011;56470;47.350;8.718;2023-09-30T12:08:06;15.47;;;5.40;;
69323;SDS011;56470;47.350;8.718;2023-09-30T12:10:32;13.43;;;4.87;;
69323;SDS011;56470;47.350;8.718;2023-09-30T12:12:58;12.02;;;4.75;;
69323;SDS011;56470;47.350;8.718;2023-09-30T12:15:23;13.93;;;5.40;;
69323;SDS011;56470;47.350;8.718;2023-09-30T12:17:48;14.13;;;4.90;;
69323;SDS011;56470;47.350;8.718;2023-09-30T12:20:14;15.85;;;5.07;;
69323;SDS011;56470;47.350;8.718;2023-09-30T12:22:41;13.17;;;4.73;;
69323;SDS011;56470;47.350;8.718;2023-09-30T12:25:06;13.77;;;4.28;;
69323;SDS011;56470;47.350;8.718;2023-09-30T12:27:33;11.97;;;4.57;;
69323;SDS011;56470;47.350;8.718;2023-09-30T12:29:59;12.40;;;4.45;;
69323;SDS011;56470;47.350;8.718;2023-09-30T12:32:24;12.90;;;4.40;;
69323;SDS011;56470;47.350;8.718;2023-09-30T12:34:51;15.70;;;5.73;;
69323;SDS011;56470;47.350;8.718;2023-09-30T12:37:17;14.23;;;4.93;;
69323;SDS011;56470;47.350;8.718;2023-09-30T12:39:43;13.20;;;5.00;;
69323;SDS011;56470;47.350;8.718;2023-09-30T12:42:10;16.08;;;4.88;;
69323;SDS011;56470;47.350;8.718;2023-09-30T12:44:37;15.00;;;4.55;;
69323;SDS011;56470;47.350;8.718;2023-09-30T12:47:03;13.77;;;5.28;;
69323;SDS011;56470;47.350;8.718;2023-09-30T12:49:30;13.85;;;5.10;;
69323;SDS011;56470;47.350;8.718;2023-09-30T12:51:55;18.47;;;5.07;;
69323;SDS011;56470;47.350;8.718;2023-09-30T12:54:22;12.88;;;5.10;;
69323;SDS011;56470;47.350;8.718;2023-09-30T12:56:48;12.98;;;4.63;;
69323;SDS011;56470;47.350;8.718;2023-09-30T12:59:15;11.77;;;4.53;;
69323;SDS011;56470;47.350;8.718;2023-09-30T13:01:41;13.43;;;4.73;;
69323;SDS011;56470;47.350;8.718;2023-09-30T13:04:06;12.63;;;4.30;;
69323;SDS011;56470;47.350;8.718;2023-09-30T13:06:33;11.70;;;4.40;;
69323;SDS011;56470;47.350;8.718;2023-09-30T13:09:00;14.43;;;4.35;;
69323;SDS011;56470;47.350;8.718;2023-09-30T13:11:26;12.85;;;4.65;;
69323;SDS011;56470;47.350;8.718;2023-09-30T13:13:52;13.23;;;4.23;;
69323;SDS011;56470;47.350;8.718;2023-09-30T13:16:17;12.13;;;5.03;;
69323;SDS011;56470;47.350;8.718;2023-09-30T13:18:43;14.57;;;3.97;;
69323;SDS011;56470;47.350;8.718;2023-09-30T13:21:08;13.93;;;4.63;;
69323;SDS011;56470;47.350;8.718;2023-09-30T13:23:34;14.70;;;4.53;;
69323;SDS011;56470;47.350;8.718;2023-09-30T13:26:00;11.98;;;4.40;;
69323;SDS011;56470;47.350;8.718;2023-09-30T13:28:26;13.50;;;4.90;;
69323;SDS011;56470;47.350;8.718;2023-09-30T13:30:52;12.45;;;3.78;;
69323;SDS011;56470;47.350;8.718;2023-09-30T13:33:18;12.27;;;4.50;;
69323;SDS011;56470;47.350;8.718;2023-09-30T13:35:45;10.43;;;4.37;;
69323;SDS011;56470;47.350;8.718;2023-09-30T13:38:10;11.43;;;4.47;;
69323;SDS011;56470;47.350;8.718;2023-09-30T13:40:35;12.60;;;4.33;;
69323;SDS011;56470;47.350;8.718;2023-09-30T13:43:03;13.90;;;5.10;;
69323;SDS011;56470;47.350;8.718;2023-09-30T13:45:29;13.52;;;4.53;;
69323;SDS011;56470;47.350;8.718;2023-09-30T13:47:55;12.98;;;4.68;;
69323;SDS011;56470;47.350;8.718;2023-09-30T13:50:20;14.10;;;3.87;;
69323;SDS011;56470;47.350;8.718;2023-09-30T13:52:46;12.73;;;4.57;;
69323;SDS011;56470;47.350;8.718;2023-09-30T13:55:11;12.98;;;5.05;;
69323;SDS011;56470;47.350;8.718;2023-09-30T13:57:43;12.48;;;4.25;;
69323;SDS011;56470;47.350;8.718;2023-09-30T14:00:10;13.27;;;4.07;;
69323;SDS011;56470;47.350;8.718;2023-09-30T14:02:35;12.02;;;4.22;;
69323;SDS011;56470;47.350;8.718;2023-09-30T14:05:01;12.17;;;4.07;;
69323;SDS011;56470;47.350;8.718;2023-09-30T14:07:26;17.17;;;4.90;;
69323;SDS011;56470;47.350;8.718;2023-09-30T14:09:53;12.40;;;4.43;;
69323;SDS011;56470;47.350;8.718;2023-09-30T14:12:18;12.73;;;4.72;;
69323;SDS011;56470;47.350;8.718;2023-09-30T14:14:44;13.27;;;4.60;;
69323;SDS011;56470;47.350;8.718;2023-09-30T14:17:09;15.23;;;4.80;;
69323;SDS011;56470;47.350;8.718;2023-09-30T14:19:39;12.38;;;4.25;;
69323;SDS011;56470;47.350;8.718;2023-09-30T14:22:05;11.77;;;3.87;;
69323;SDS011;56470;47.350;8.718;2023-09-30T14:24:33;13.88;;;4.05;;
69323;SDS011;56470;47.350;8.718;2023-09-30T14:26:58;14.37;;;4.60;;
69323;SDS011;56470;47.350;8.718;2023-09-30T14:29:24;13.57;;;4.50;;
69323;SDS011;56470;47.350;8.718;2023-09-30T14:31:49;17.63;;;4.47;;
69323;SDS011;56470;47.350;8.718;2023-09-30T14:34:15;13.60;;;3.85;;
69323;SDS011;56470;47.350;8.718;2023-09-30T14:36:40;12.03;;;4.50;;
69323;SDS011;56470;47.350;8.718;2023-09-30T14:39:05;11.43;;;4.17;;
69323;SDS011;56470;47.350;8.718;2023-09-30T14:41:31;12.87;;;4.37;;
69323;SDS011;56470;47.350;8.718;2023-09-30T14:43:57;16.85;;;5.55;;
69323;SDS011;56470;47.350;8.718;2023-09-30T14:46:23;14.53;;;4.53;;